createdAt,value
2018-01-17T00:00:20.615Z,95454.09
2018-01-17T00:02:48.409Z,95449.02
2018-01-17T00:05:16.125Z,95455.51
2018-01-17T00:07:43.906Z,95457.91
2018-01-17T00:10:11.671Z,95443.55
2018-01-17T00:12:39.479Z,95434.08
2018-01-17T00:15:07.196Z,95431.85
2018-01-17T00:17:34.960Z,95434.69
2018-01-17T00:20:03.032Z,95440.72
2018-01-17T00:22:41.913Z,95442.28
2018-01-17T00:25:09.929Z,95437.05
2018-01-17T00:27:37.588Z,95427.97
2018-01-17T00:30:05.353Z,95422.70
2018-01-17T00:32:33.321Z,95431.94
2018-01-17T00:35:01.093Z,95425.64
2018-01-17T00:37:29.008Z,95426.92
2018-01-17T00:39:57.226Z,95423.61
2018-01-17T00:42:25.298Z,95422.59
2018-01-17T00:44:53.013Z,95405.79
2018-01-17T00:47:20.828Z,95409.80
2018-01-17T00:49:48.948Z,95397.16
2018-01-17T00:52:16.660Z,95406.62
2018-01-17T00:54:44.536Z,95403.19
2018-01-17T00:57:12.393Z,95408.81
2018-01-17T00:59:40.670Z,95405.45
2018-01-17T01:02:08.330Z,95406.64
2018-01-17T01:04:36.095Z,95404.18
2018-01-17T01:07:03.961Z,95404.02
2018-01-17T01:09:31.679Z,95406.19
2018-01-17T01:11:59.445Z,95406.01
2018-01-17T01:14:27.152Z,95405.87
2018-01-17T01:16:55.017Z,95420.23
2018-01-17T01:19:22.678Z,95433.45
2018-01-17T01:21:50.344Z,95438.77
2018-01-17T01:24:18.105Z,95437.71
2018-01-17T01:26:45.766Z,95420.19
2018-01-17T01:29:13.533Z,95409.02
2018-01-17T01:31:41.191Z,95412.75
2018-01-17T01:34:09.061Z,95412.59
2018-01-17T01:36:36.733Z,95399.52
2018-01-17T01:39:04.586Z,95409.42
2018-01-17T01:43:59.293Z,95407.61
2018-01-17T01:46:27.161Z,95397.62
2018-01-17T01:49:02.605Z,95406.93
2018-01-17T01:51:30.371Z,95400.81
2018-01-17T01:53:58.133Z,95405.43
2018-01-17T01:56:25.902Z,95395.01
2018-01-17T01:58:53.763Z,95388.56
2018-01-17T02:01:21.527Z,95386.27
2018-01-17T02:03:49.291Z,95401.72
2018-01-17T02:06:17.157Z,95391.23
2018-01-17T02:08:44.920Z,95392.77
2018-01-17T02:11:12.787Z,95397.64
2018-01-17T02:13:40.685Z,95396.85
2018-01-17T02:16:08.419Z,95399.02
2018-01-17T02:18:36.181Z,95410.34
2018-01-17T02:21:04.048Z,95403.97
2018-01-17T02:23:31.708Z,95395.09
2018-01-17T02:25:59.575Z,95403.23
2018-01-17T02:28:27.240Z,95395.98
2018-01-17T02:30:55.309Z,95382.47
2018-01-17T02:33:23.378Z,95387.55
2018-01-17T02:35:51.143Z,95391.16
2018-01-17T02:38:19.010Z,95391.29
2018-01-17T02:40:46.674Z,95392.65
2018-01-17T02:43:14.437Z,95411.45
2018-01-17T02:45:42.096Z,95395.28
2018-01-17T02:48:09.861Z,95393.11
2018-01-17T02:50:37.584Z,95392.72
2018-01-17T02:53:05.389Z,95391.60
2018-01-17T02:55:33.152Z,95384.98
2018-01-17T02:58:00.814Z,95368.64
2018-01-17T03:00:28.681Z,95363.74
2018-01-17T03:02:56.340Z,95373.20
2018-01-17T03:05:24.207Z,95377.01
2018-01-17T03:07:51.871Z,95365.13
2018-01-17T03:10:19.633Z,95366.55
2018-01-17T03:12:47.397Z,95374.77
2018-01-17T03:15:15.132Z,95372.48
2018-01-17T03:17:42.824Z,95376.83
2018-01-17T03:20:10.486Z,95386.58
2018-01-17T03:22:38.352Z,95395.75
2018-01-17T03:25:06.114Z,95391.72
2018-01-17T03:27:33.777Z,95378.69
2018-01-17T03:30:01.600Z,95385.01
2018-01-17T03:32:29.407Z,95383.39
2018-01-17T03:34:57.170Z,95384.41
2018-01-17T03:37:24.934Z,95382.66
2018-01-17T03:39:52.699Z,95384.69
2018-01-17T03:42:20.668Z,95386.28
2018-01-17T03:44:48.333Z,95382.25
2018-01-17T03:47:15.913Z,95370.16
2018-01-17T03:49:43.473Z,95373.74
2018-01-17T03:52:11.010Z,95371.98
2018-01-17T03:54:38.862Z,95354.82
2018-01-17T03:57:06.364Z,95365.33
2018-01-17T03:59:33.878Z,95371.70
2018-01-17T04:02:01.401Z,95376.78
2018-01-17T04:04:28.900Z,95376.28
2018-01-17T04:06:56.581Z,95381.28
2018-01-17T04:09:24.089Z,95398.11
2018-01-17T04:11:51.597Z,95425.05
2018-01-17T04:14:19.117Z,95447.52
2018-01-17T04:16:46.615Z,95430.60
2018-01-17T04:19:14.351Z,95435.31
2018-01-17T04:21:41.910Z,95442.34
2018-01-17T04:24:09.413Z,95445.27
2018-01-17T04:26:36.945Z,95459.15
2018-01-17T04:29:04.497Z,95467.42
2018-01-17T04:31:32.249Z,95463.20
2018-01-17T04:33:59.756Z,95486.13
2018-01-17T04:36:27.255Z,95489.78
2018-01-17T04:38:54.823Z,95499.59
2018-01-17T04:41:22.383Z,95489.80
2018-01-17T04:43:50.116Z,95482.97
2018-01-17T04:46:17.616Z,95480.61
2018-01-17T04:48:45.110Z,95489.45
2018-01-17T04:51:12.722Z,95500.11
2018-01-17T04:53:40.220Z,95511.40
2018-01-17T04:56:07.941Z,95515.84
2018-01-17T04:58:35.441Z,95524.87
2018-01-17T05:01:02.983Z,95531.38
2018-01-17T05:03:30.553Z,95523.48
2018-01-17T05:05:58.062Z,95522.27
2018-01-17T05:08:25.942Z,95520.60
2018-01-17T05:10:53.436Z,95539.46
2018-01-17T05:13:20.959Z,95537.23
2018-01-17T05:15:48.531Z,95551.13
2018-01-17T05:18:15.997Z,95548.51
2018-01-17T05:20:43.874Z,95550.55
2018-01-17T05:23:11.400Z,95561.02
2018-01-17T05:25:38.908Z,95560.86
2018-01-17T05:28:06.433Z,95550.91
2018-01-17T05:30:33.993Z,95562.38
2018-01-17T05:33:01.554Z,95567.16
2018-01-17T05:35:29.060Z,95558.96
2018-01-17T05:37:56.561Z,95575.64
2018-01-17T05:40:24.109Z,95568.46
2018-01-17T05:42:52.027Z,95576.23
2018-01-17T05:45:19.944Z,95571.78
2018-01-17T05:47:47.436Z,95559.98
2018-01-17T05:50:14.959Z,95558.57
2018-01-17T05:52:42.476Z,95557.20
2018-01-17T05:55:09.976Z,95571.15
2018-01-17T05:57:37.564Z,95571.97
2018-01-17T06:00:05.094Z,95567.97
2018-01-17T06:02:33.574Z,95581.30
2018-01-17T06:05:01.136Z,95583.66
2018-01-17T06:07:28.694Z,95588.62
2018-01-17T06:09:56.457Z,95596.19
2018-01-17T06:12:23.950Z,95582.45
2018-01-17T06:14:51.473Z,95573.75
2018-01-17T06:17:19.003Z,95588.45
2018-01-17T06:19:46.498Z,95571.44
2018-01-17T06:22:14.053Z,95575.80
2018-01-17T06:24:41.545Z,95576.95
2018-01-17T06:27:09.064Z,95591.54
2018-01-17T06:29:36.844Z,95596.27
2018-01-17T06:32:04.337Z,95627.86
2018-01-17T06:34:32.019Z,95626.66
2018-01-17T06:36:59.532Z,95622.94
2018-01-17T06:39:27.064Z,95622.51
2018-01-17T06:41:54.632Z,95633.98
2018-01-17T06:44:22.158Z,95644.92
2018-01-17T06:46:49.681Z,95640.91
2018-01-17T06:49:17.179Z,95653.08
2018-01-17T06:51:44.677Z,95655.13
2018-01-17T06:54:12.214Z,95668.58
2018-01-17T06:56:39.716Z,95686.48
2018-01-17T06:59:07.343Z,95700.44
2018-01-17T07:01:34.838Z,95704.02
2018-01-17T07:04:02.336Z,95717.98
2018-01-17T07:06:29.908Z,95710.69
2018-01-17T07:08:57.410Z,95729.41
2018-01-17T07:11:25.073Z,95733.69
2018-01-17T07:13:52.584Z,95743.83
2018-01-17T07:16:20.076Z,95734.84
2018-01-17T07:18:47.603Z,95756.42
2018-01-17T07:21:15.160Z,95753.09
2018-01-17T07:23:42.686Z,95770.67
2018-01-17T07:26:11.052Z,95736.86
2018-01-17T07:28:38.579Z,95765.40
2018-01-17T07:31:06.113Z,95796.39
2018-01-17T07:33:33.648Z,95790.23
2018-01-17T07:36:01.409Z,95799.50
2018-01-17T07:38:28.912Z,95811.84
2018-01-17T07:40:56.469Z,95833.89
2018-01-17T07:43:23.996Z,95854.11
2018-01-17T07:45:51.504Z,95859.22
2018-01-17T07:48:19.130Z,95858.18
2018-01-17T07:50:46.625Z,95859.43
2018-01-17T07:53:14.155Z,95863.82
2018-01-17T07:55:41.706Z,95870.70
2018-01-17T07:58:09.201Z,95869.00
2018-01-17T08:00:36.926Z,95876.60
2018-01-17T08:03:04.427Z,95872.94
2018-01-17T08:05:31.943Z,95890.39
2018-01-17T08:07:59.465Z,95883.47
2018-01-17T08:10:27.981Z,95902.05
2018-01-17T08:12:55.644Z,95906.42
2018-01-17T08:15:23.489Z,95917.97
2018-01-17T08:17:50.984Z,95912.86
2018-01-17T08:20:18.515Z,95923.81
2018-01-17T08:22:46.016Z,95938.57
2018-01-17T08:25:13.716Z,95945.67
2018-01-17T08:27:41.212Z,95945.33
2018-01-17T08:30:08.706Z,95961.11
2018-01-17T08:32:36.326Z,95947.30
2018-01-17T08:35:03.826Z,95956.02
2018-01-17T08:37:31.518Z,95954.55
2018-01-17T08:39:59.016Z,95963.13
2018-01-17T08:42:26.509Z,95970.59
2018-01-17T08:44:54.105Z,95976.69
2018-01-17T08:47:21.609Z,95988.07
2018-01-17T08:49:49.337Z,95988.75
2018-01-17T08:52:16.852Z,95991.47
2018-01-17T08:54:44.358Z,96000.48
2018-01-17T08:57:11.910Z,95996.22
2018-01-17T08:59:39.409Z,96001.25
2018-01-17T09:02:07.109Z,96003.34
2018-01-17T09:04:34.609Z,96006.75
2018-01-17T09:07:02.108Z,96010.41
2018-01-17T09:09:29.636Z,96004.90
2018-01-17T09:11:57.179Z,96010.00
2018-01-17T09:14:24.937Z,96027.47
2018-01-17T09:16:52.444Z,96029.09
2018-01-17T09:19:19.954Z,96028.77
2018-01-17T09:21:47.487Z,96045.94
2018-01-17T09:24:14.985Z,96040.29
2018-01-17T09:26:42.725Z,96051.09
2018-01-17T09:29:10.220Z,96087.45
2018-01-17T09:31:37.717Z,96093.55
2018-01-17T09:34:05.239Z,96111.45
2018-01-17T09:36:32.756Z,96101.38
2018-01-17T09:39:00.388Z,96093.73
2018-01-17T09:41:27.884Z,96067.39
2018-01-17T09:43:55.434Z,96073.33
2018-01-17T09:46:22.991Z,96066.31
2018-01-17T09:48:50.498Z,96074.61
2018-01-17T09:51:18.488Z,96066.18
2018-01-17T09:53:46.016Z,96071.19
2018-01-17T09:56:13.518Z,96077.63
2018-01-17T09:58:41.054Z,96076.94
2018-01-17T10:01:08.561Z,96095.22
2018-01-17T10:03:36.252Z,96089.80
2018-01-17T10:06:03.773Z,96109.75
2018-01-17T10:08:31.277Z,96107.42
2018-01-17T10:10:58.804Z,96108.15
2018-01-17T10:13:26.347Z,96109.58
2018-01-17T10:15:54.315Z,96120.16
2018-01-17T10:18:21.813Z,96128.20
2018-01-17T10:20:49.317Z,96153.63
2018-01-17T10:23:16.853Z,96157.92
2018-01-17T10:25:44.357Z,96165.95
2018-01-17T10:28:11.900Z,96158.45
2018-01-17T10:30:39.405Z,96171.56
2018-01-17T10:33:06.923Z,96178.65
2018-01-17T10:35:34.532Z,96178.00
2018-01-17T10:38:02.040Z,96200.86
2018-01-17T10:40:29.669Z,96199.47
2018-01-17T10:42:57.178Z,96216.11
2018-01-17T10:45:24.677Z,96204.47
2018-01-17T10:47:52.202Z,96212.59
2018-01-17T10:50:19.701Z,96204.97
2018-01-17T10:52:47.233Z,96209.61
2018-01-17T10:55:14.730Z,96226.27
2018-01-17T10:57:42.240Z,96217.97
2018-01-17T11:00:09.868Z,96215.73
2018-01-17T11:02:37.364Z,96224.19
2018-01-17T11:05:05.192Z,96223.07
2018-01-17T11:07:32.708Z,96218.50
2018-01-17T11:10:00.213Z,96237.27
2018-01-17T11:12:27.872Z,96244.37
2018-01-17T11:14:55.372Z,96239.69
2018-01-17T11:17:22.916Z,96257.19
2018-01-17T11:19:50.449Z,96248.62
2018-01-17T11:22:18.014Z,96262.28
2018-01-17T11:24:45.562Z,96261.68
2018-01-17T11:27:13.066Z,96256.19
2018-01-17T11:29:40.885Z,96278.73
2018-01-17T11:32:08.384Z,96281.41
2018-01-17T11:34:35.921Z,96285.27
2018-01-17T11:37:03.562Z,96295.45
2018-01-17T11:39:31.124Z,96300.95
2018-01-17T11:41:58.807Z,96293.77
2018-01-17T11:44:26.291Z,96286.14
2018-01-17T11:46:53.801Z,96298.75
2018-01-17T11:49:21.345Z,96298.95
2018-01-17T11:51:48.852Z,96289.97
2018-01-17T11:54:16.413Z,96293.20
2018-01-17T11:56:43.917Z,96295.56
2018-01-17T11:59:11.435Z,96292.36
2018-01-17T12:01:38.968Z,96302.66
2018-01-17T12:04:06.508Z,96304.91
2018-01-17T12:06:34.232Z,96299.95
2018-01-17T12:09:01.752Z,96322.39
2018-01-17T12:11:29.294Z,96319.02
2018-01-17T12:13:56.824Z,96335.87
2018-01-17T12:16:24.319Z,96321.27
2018-01-17T12:18:52.250Z,96317.98
2018-01-17T12:21:19.755Z,96335.48
2018-01-17T12:23:47.273Z,96336.13
2018-01-17T12:26:14.805Z,96340.08
2018-01-17T12:28:42.320Z,96323.57
2018-01-17T12:31:09.859Z,96337.46
2018-01-17T12:33:37.357Z,96348.22
2018-01-17T12:36:04.903Z,96361.66
2018-01-17T12:38:32.437Z,96347.50
2018-01-17T12:40:59.946Z,96348.41
2018-01-17T12:43:27.739Z,96351.81
2018-01-17T12:45:55.244Z,96340.23
2018-01-17T12:48:22.997Z,96351.52
2018-01-17T12:50:50.508Z,96360.65
2018-01-17T12:53:18.025Z,96360.56
2018-01-17T12:55:45.583Z,96353.85
2018-01-17T12:58:13.114Z,96372.69
2018-01-17T13:00:40.613Z,96355.38
2018-01-17T13:03:08.165Z,96376.60
2018-01-17T13:05:35.673Z,96389.84
2018-01-17T13:08:03.308Z,96393.39
2018-01-17T13:10:30.809Z,96377.28
2018-01-17T13:12:58.304Z,96395.01
2018-01-17T13:15:25.837Z,96367.57
2018-01-17T13:17:53.344Z,96379.16
2018-01-17T13:20:20.972Z,96386.80
2018-01-17T13:22:48.487Z,96389.27
2018-01-17T13:25:15.988Z,96399.75
2018-01-17T13:27:44.028Z,96397.69
2018-01-17T13:30:11.531Z,96388.23
2018-01-17T13:32:39.556Z,96407.09
2018-01-17T13:35:07.053Z,96401.92
2018-01-17T13:37:34.553Z,96417.67
2018-01-17T13:40:02.076Z,96411.58
2018-01-17T13:42:29.614Z,96429.31
2018-01-17T13:44:57.165Z,96423.49
2018-01-17T13:47:24.740Z,96415.37
2018-01-17T13:49:52.265Z,96415.90
2018-01-17T13:52:20.283Z,96430.91
2018-01-17T13:54:47.865Z,96411.97
2018-01-17T13:57:15.393Z,96428.17
2018-01-17T13:59:42.897Z,96406.20
2018-01-17T14:02:10.401Z,96419.13
2018-01-17T14:04:37.947Z,96417.17
2018-01-17T14:07:05.589Z,96422.54
2018-01-17T14:09:33.333Z,96421.63
2018-01-17T14:12:00.858Z,96425.44
2018-01-17T14:14:28.368Z,96438.84
2018-01-17T14:16:55.900Z,96435.23
2018-01-17T14:19:23.499Z,96436.33
2018-01-17T14:21:51.040Z,96449.30
2018-01-17T14:24:18.541Z,96444.73
2018-01-17T14:26:46.984Z,96461.81
2018-01-17T14:29:14.491Z,96452.01
2018-01-17T14:31:41.997Z,96461.75
2018-01-17T14:34:09.572Z,96471.77
2018-01-17T14:36:37.073Z,96476.70
2018-01-17T14:39:04.616Z,96464.35
2018-01-17T14:41:32.133Z,96466.63
2018-01-17T14:43:59.697Z,96466.30
2018-01-17T14:46:28.164Z,96456.98
2018-01-17T14:48:55.662Z,96477.31
2018-01-17T14:51:23.907Z,96477.63
2018-01-17T14:53:51.401Z,96491.09
2018-01-17T14:56:18.901Z,96476.41
2018-01-17T14:58:46.429Z,96473.23
2018-01-17T15:01:13.935Z,96484.72
2018-01-17T15:03:41.496Z,96486.20
2018-01-17T15:06:09.045Z,96503.30
2018-01-17T15:08:36.557Z,96487.45
2018-01-17T15:11:04.276Z,96488.30
2018-01-17T15:13:31.834Z,96485.19
2018-01-17T15:15:59.412Z,96484.09
2018-01-17T15:18:26.953Z,96487.34
2018-01-17T15:20:54.468Z,96491.84
2018-01-17T15:23:22.001Z,96488.83
2018-01-17T15:25:49.509Z,96489.70
2018-01-17T15:28:17.202Z,96508.73
2018-01-17T15:30:44.751Z,96493.13
2018-01-17T15:33:12.308Z,96486.59
2018-01-17T15:35:39.867Z,96492.89
2018-01-17T15:38:07.373Z,96502.55
2018-01-17T15:40:35.498Z,96504.80
2018-01-17T15:43:02.989Z,96495.02
2018-01-17T15:45:30.511Z,96497.78
2018-01-17T15:47:58.053Z,96493.02
2018-01-17T15:50:25.642Z,96511.13
2018-01-17T15:52:53.198Z,96517.32
2018-01-17T15:55:20.706Z,96514.85
2018-01-17T15:57:48.220Z,96522.54
2018-01-17T16:00:15.749Z,96532.45
2018-01-17T16:02:43.260Z,96536.45
2018-01-17T16:05:10.956Z,96528.53
2018-01-17T16:07:38.482Z,96532.25
2018-01-17T16:10:05.986Z,96552.05
2018-01-17T16:12:33.576Z,96569.09
2018-01-17T16:15:01.120Z,96565.78
2018-01-17T16:17:28.986Z,96569.64
2018-01-17T16:19:56.491Z,96581.16
2018-01-17T16:22:24.924Z,96609.41
2018-01-17T16:24:52.462Z,96622.13
2018-01-17T16:27:19.969Z,96623.50
2018-01-17T16:29:47.732Z,96625.19
2018-01-17T16:32:15.275Z,96615.83
2018-01-17T16:34:42.814Z,96627.51
2018-01-17T16:37:11.231Z,96607.39
2018-01-17T16:39:38.770Z,96613.95
2018-01-17T16:42:06.357Z,96623.16
2018-01-17T16:44:33.878Z,96640.70
2018-01-17T16:47:01.381Z,96635.62
2018-01-17T16:49:28.924Z,96622.06
2018-01-17T16:51:56.477Z,96636.50
2018-01-17T16:54:24.324Z,96628.87
2018-01-17T16:56:51.882Z,96622.16
2018-01-17T16:59:19.386Z,96623.36
2018-01-17T17:01:46.996Z,96617.65
2018-01-17T17:04:15.494Z,96600.17
2018-01-17T17:06:43.520Z,96596.75
2018-01-17T17:09:11.136Z,96593.54
2018-01-17T17:11:38.873Z,96591.40
2018-01-17T17:14:07.477Z,96596.30
2018-01-17T17:16:35.171Z,96598.81
2018-01-17T17:19:03.541Z,96606.20
2018-01-17T17:21:31.273Z,96605.80
2018-01-17T17:23:59.139Z,96582.77
2018-01-17T17:26:28.464Z,96608.03
2018-01-17T17:28:56.370Z,96611.64
2018-01-17T17:31:24.423Z,96619.39
2018-01-17T17:33:52.209Z,96629.93
2018-01-17T17:36:19.763Z,96642.38
2018-01-17T17:38:47.561Z,96654.34
2018-01-17T17:41:15.422Z,96652.91
2018-01-17T17:43:43.324Z,96642.98
2018-01-17T17:46:11.158Z,96668.21
2018-01-17T17:48:39.015Z,96669.00
2018-01-17T17:51:06.804Z,96665.17
2018-01-17T17:53:34.649Z,96669.06
2018-01-17T17:56:02.426Z,96689.50
2018-01-17T17:58:30.279Z,96700.98
2018-01-17T18:00:57.870Z,96704.99
2018-01-17T18:03:25.602Z,96698.98
2018-01-17T18:05:53.205Z,96703.50
2018-01-17T18:08:21.232Z,96701.05
2018-01-17T18:10:49.201Z,96719.17
2018-01-17T18:13:17.353Z,96713.16
2018-01-17T18:15:45.194Z,96733.73
2018-01-17T18:18:12.979Z,96740.66
2018-01-17T18:20:40.885Z,96745.06
2018-01-17T18:23:08.414Z,96744.33
2018-01-17T18:25:36.298Z,96769.00
2018-01-17T18:28:04.194Z,96776.77
2018-01-17T18:30:32.136Z,96765.47
2018-01-17T18:33:00.108Z,96780.94
2018-01-17T18:35:27.969Z,96791.97
2018-01-17T18:37:56.754Z,96790.15
2018-01-17T18:40:24.637Z,96800.34
2018-01-17T18:42:52.617Z,96807.16
2018-01-17T18:45:20.483Z,96810.58
2018-01-17T18:47:48.337Z,96814.06
2018-01-17T18:50:16.089Z,96819.06
2018-01-17T18:52:43.818Z,96830.23
2018-01-17T18:55:11.614Z,96829.51
2018-01-17T18:57:39.594Z,96824.92
2018-01-17T19:00:07.348Z,96825.05
2018-01-17T19:02:35.113Z,96834.14
2018-01-17T19:05:03.080Z,96826.27
2018-01-17T19:07:31.592Z,96819.31
2018-01-17T19:09:59.635Z,96834.23
2018-01-17T19:12:27.146Z,96834.14
2018-01-17T19:14:55.190Z,96833.92
2018-01-17T19:17:22.935Z,96838.29
2018-01-17T19:19:50.682Z,96846.42
2018-01-17T19:22:18.554Z,96855.38
2018-01-17T19:24:46.220Z,96858.25
2018-01-17T19:27:13.735Z,96863.45
2018-01-17T19:29:41.320Z,96870.42
2018-01-17T19:32:08.895Z,96867.16
2018-01-17T19:34:36.972Z,96861.55
2018-01-17T19:37:04.938Z,96864.25
2018-01-17T19:39:33.274Z,96866.75
2018-01-17T19:42:01.149Z,96860.39
2018-01-17T19:44:28.952Z,96869.28
2018-01-17T19:46:56.915Z,96846.91
2018-01-17T19:49:24.778Z,96849.19
2018-01-17T19:51:52.481Z,96842.80
2018-01-17T19:54:20.307Z,96853.14
2018-01-17T19:56:48.274Z,96841.36
2018-01-17T19:59:17.185Z,96851.02
2018-01-17T20:01:44.928Z,96846.28
2018-01-17T20:04:12.697Z,96849.23
2018-01-17T20:06:41.640Z,96852.23
2018-01-17T20:09:10.268Z,96847.98
2018-01-17T20:11:38.647Z,96845.61
2018-01-17T20:14:06.426Z,96838.09
2018-01-17T20:16:34.276Z,96840.93
2018-01-17T20:19:02.552Z,96853.96
2018-01-17T20:21:30.435Z,96845.49
2018-01-17T20:23:58.538Z,96857.26
2018-01-17T20:26:27.380Z,96860.64
2018-01-17T20:28:55.263Z,96842.41
2018-01-17T20:31:23.425Z,96857.92
2018-01-17T20:33:51.403Z,96863.25
2018-01-17T20:36:20.075Z,96886.26
2018-01-17T20:38:47.945Z,96871.58
2018-01-17T20:41:15.797Z,96877.97
2018-01-17T20:43:43.584Z,96869.37
2018-01-17T20:46:11.335Z,96873.63
2018-01-17T20:48:39.202Z,96879.74
2018-01-17T20:51:06.881Z,96878.03
2018-01-17T20:53:35.347Z,96887.93
2018-01-17T20:56:03.100Z,96883.77
2018-01-17T20:58:30.772Z,96882.26
2018-01-17T21:00:58.928Z,96881.95
2018-01-17T21:03:26.666Z,96900.83
2018-01-17T21:05:54.296Z,96885.33
2018-01-17T21:08:22.553Z,96890.59
2018-01-17T21:10:50.107Z,96880.69
2018-01-17T21:13:18.604Z,96884.36
2018-01-17T21:15:46.154Z,96875.63
2018-01-17T21:18:13.705Z,96889.44
2018-01-17T21:20:41.261Z,96891.80
2018-01-17T21:23:08.765Z,96894.31
2018-01-17T21:25:36.494Z,96892.70
2018-01-17T21:28:04.015Z,96890.74
2018-01-17T21:30:31.532Z,96883.08
2018-01-17T21:32:59.081Z,96881.13
2018-01-17T21:35:26.720Z,96882.28
2018-01-17T21:37:54.364Z,96881.88
2018-01-17T21:40:21.871Z,96877.08
2018-01-17T21:42:55.764Z,96887.26
2018-01-17T21:45:28.880Z,96892.91
2018-01-17T21:47:56.680Z,96899.45
2018-01-17T21:50:24.294Z,96903.03
2018-01-17T21:52:51.939Z,96907.41
2018-01-17T21:55:19.526Z,96910.49
2018-01-17T21:57:47.230Z,96909.93
2018-01-17T22:00:15.391Z,96909.32
2018-01-17T22:02:43.143Z,96906.14
2018-01-17T22:05:10.849Z,96904.84
2018-01-17T22:07:38.424Z,96907.66
2018-01-17T22:10:05.999Z,96914.42
2018-01-17T22:12:34.032Z,96917.36
2018-01-17T22:15:01.797Z,96918.95
2018-01-17T22:17:29.567Z,96920.33
2018-01-17T22:19:57.324Z,96923.48
2018-01-17T22:22:24.853Z,96926.08
2018-01-17T22:24:52.683Z,96929.33
2018-01-17T22:27:20.410Z,96917.75
2018-01-17T22:29:48.055Z,96924.37
2018-01-17T22:32:15.685Z,96933.45
2018-01-17T22:34:43.258Z,96933.14
2018-01-17T22:39:38.310Z,96921.73
2018-01-17T22:42:05.853Z,96929.00
2018-01-17T22:44:33.429Z,96915.38
2018-01-17T22:47:01.029Z,96922.83
2018-01-17T22:49:28.803Z,96922.84
2018-01-17T22:51:56.412Z,96918.70
2018-01-17T22:54:24.075Z,96919.02
2018-01-17T22:56:51.814Z,96916.23
2018-01-17T22:59:19.398Z,96919.43
2018-01-17T23:01:47.161Z,96922.41
2018-01-17T23:04:14.822Z,96913.95
2018-01-17T23:06:42.380Z,96922.48
2018-01-17T23:09:09.926Z,96926.12
2018-01-17T23:11:37.501Z,96928.04
2018-01-17T23:14:05.263Z,96936.10
2018-01-17T23:16:32.770Z,96930.33
2018-01-17T23:19:00.278Z,96922.88
2018-01-17T23:21:27.851Z,96933.72
2018-01-17T23:23:55.361Z,96928.91
2018-01-17T23:26:22.933Z,96928.59
2018-01-17T23:28:50.441Z,96925.62
2018-01-17T23:31:17.972Z,96915.14
2018-01-17T23:33:45.500Z,96917.42
2018-01-17T23:36:13.009Z,96914.73
2018-01-17T23:38:40.957Z,96908.86
2018-01-17T23:41:08.456Z,96912.27
2018-01-17T23:43:35.956Z,96915.25
2018-01-17T23:46:03.480Z,96918.12
2018-01-17T23:48:30.981Z,96916.63
2018-01-17T23:50:58.854Z,96900.39
2018-01-17T23:53:26.361Z,96914.04
2018-01-17T23:55:53.888Z,96908.41
2018-01-17T23:58:21.416Z,96904.19
